Aeroporto :
LOGIN :

Iscrizione | Disclaimer

   EN    FR    IT 

 










Sommario :    VFR   VFR Marginale   IFR   IFR Intensivo   IFR Molto Intensivo
Visibilità : 
Base nubi : 
>= 8 km
>= 3000ft
5 / 8 km
1000 / 3000 ft
1500m / 5 km
500 / 1000 ft
800 / 1500m
200 / 500 ft
< 800m
< 200 ft
Simboli :   Temporali  Nebbia  Neve Forte  Precipitazioni Forti  Vento > 20 kt
SIGMETs :   Varie  Temporali  Ghiacco  Turbolenza  Onda orograficha  Ceneri Vulcaniche







- Altitudine del aeroporto : 124 ft
- Codice IATA : NHT
- Carte del aeroporto


EGWU - RAF Northolt

ULTIMO METAR :
  • 230550Z AUTO 11002KT 1900 // FEW003/// BKN006/// 06/06 Q1033

METARs OBSOLETI :
  • 230450Z AUTO 12003KT 2000 // OVC002/// 07/07 Q1033
  • 230350Z AUTO 11006KT 2100 // BKN003/// SCT008/// 08/07 Q1033

TAF TAF EGWU
Valido dal 23 a 06 ore il 24 a 00 ore UTC


230429Z 2306/2324 10004KT 2000 BR BKN003
PROB30 2306/2309 0600 FG BKN000
BECMG 2309/2311 6000 HZ FEW007
BECMG 2311/2313 9999 NSW
PROB40 2320/2324 7000 HZ
Nessun NOTAM noto per questo aeroporto.



MetMap, La meteo Aeronautica in un colpo d'occhio ! - Copyright ORBIFLY Dicembre 2007 - Disclaimer

ORBIFLY MET'MAP TEAM :

Programmazione e sviluppo : Alexandra Zaïnal
Concezione e sviluppo : Baudouin d'Aumeries
Co-Programmazione e sviluppo : Marc-Olivier Méhu
Supporto tecnico e logistico : Manuel Goepfert
Aiuto per la traduzione : Arnaldo La Scala

Contatto : metmap@orbifly.com




FONTI E CREDITI :

   NOAA